Time;durP1;ratioP1;P1;durP2;ratioP2;P2;SDS_P1;SDS_P2;PMS_P1;PMS_P2;Temp;Humidity;BMP_temperature;BMP_pressure;BME280_temperature;BME280_humidity;BME280_pressure;Samples;Min_cycle;Max_cycle;Signal;HPM_P1;HPM_P2
2022/06/03 00:01:45;;;;;;;8.97;4.27;;;19.40;99.90;;;;;;5071168;28;20182;-72
2022/06/03 00:05:07;;;;;;;13.03;4.50;;;19.30;99.90;;;;;;5054925;28;20178;-73
2022/06/03 00:08:00;;;;;;;13.73;4.57;;;19.30;99.90;;;;;;5047185;28;20277;-73
2022/06/03 00:11:36;;;;;;;16.27;4.80;;;19.40;99.90;;;;;;5055123;28;20181;-73
2022/06/03 00:14:30;;;;;;;14.30;4.90;;;19.50;99.90;;;;;;4971354;28;20229;-73
2022/06/03 00:17:56;;;;;;;15.30;5.53;;;19.50;99.90;;;;;;4971740;28;20717;-72
2022/06/03 00:20:39;;;;;;;11.40;4.83;;;19.50;99.90;;;;;;5066707;28;20189;-72
2022/06/03 00:23:53;;;;;;;13.37;5.20;;;19.50;99.90;;;;;;5070843;28;20197;-72
2022/06/03 00:26:58;;;;;;;19.33;5.83;;;19.40;99.90;;;;;;5092851;28;20205;-72
2022/06/03 00:30:15;;;;;;;18.40;6.17;;;19.40;99.90;;;;;;5075225;28;20269;-72
2022/06/03 00:32:47;;;;;;;12.67;5.10;;;19.40;99.90;;;;;;5053880;28;20213;-72
2022/06/03 00:36:09;;;;;;;13.03;5.33;;;19.30;99.90;;;;;;5105336;28;20212;-72
2022/06/03 00:39:10;;;;;;;13.47;5.50;;;19.20;99.90;;;;;;5070450;28;20198;-72
2022/06/03 00:41:51;;;;;;;13.60;5.47;;;19.20;99.90;;;;;;5084564;28;20272;-72
2022/06/03 00:44:44;;;;;;;13.00;5.23;;;19.10;99.90;;;;;;5086375;28;20200;-72
2022/06/03 00:47:29;;;;;;;11.37;5.27;;;19.00;99.90;;;;;;5054645;28;20186;-72
2022/06/03 00:50:03;;;;;;;12.27;5.37;;;19.00;99.90;;;;;;5070045;28;20178;-72
2022/06/03 00:52:48;;;;;;;9.43;5.00;;;18.90;99.90;;;;;;5059442;28;20189;-73
2022/06/03 00:55:23;;;;;;;14.67;5.77;;;18.90;99.90;;;;;;5064282;28;20183;-72
2022/06/03 00:58:30;;;;;;;14.30;5.53;;;18.80;99.90;;;;;;5051432;28;20186;-72
2022/06/03 01:01:24;;;;;;;13.60;5.33;;;18.80;99.90;;;;;;5068921;28;20499;-72
2022/06/03 01:04:21;;;;;;;11.93;4.97;;;18.60;99.90;;;;;;5105988;28;20179;-72
2022/06/03 01:07:06;;;;;;;12.17;5.27;;;18.60;99.90;;;;;;5070995;28;20185;-72
2022/06/03 01:09:47;;;;;;;15.53;5.20;;;18.50;99.90;;;;;;5081527;28;20265;-72
2022/06/03 01:12:22;;;;;;;12.47;5.27;;;18.50;99.90;;;;;;5070212;28;20174;-72
2022/06/03 01:15:36;;;;;;;11.47;5.53;;;18.60;99.90;;;;;;5068201;28;20186;-73
2022/06/03 01:18:21;;;;;;;14.17;4.87;;;18.60;99.90;;;;;;5050957;28;20259;-73
2022/06/03 01:21:28;;;;;;;14.87;5.90;;;18.60;99.90;;;;;;5083682;28;20982;-72
2022/06/03 01:24:13;;;;;;;16.93;5.40;;;18.60;99.90;;;;;;5084379;28;20273;-72
2022/06/03 01:27:09;;;;;;;14.23;5.40;;;18.50;99.90;;;;;;5070970;28;20189;-72
2022/06/03 01:29:57;;;;;;;15.70;5.33;;;18.50;99.90;;;;;;5104372;28;20228;-73
2022/06/03 01:33:07;;;;;;;14.60;6.00;;;18.50;99.90;;;;;;5079282;28;20182;-72
2022/06/03 01:36:28;;;;;;;12.03;5.60;;;18.40;99.90;;;;;;5070832;28;20178;-72
2022/06/03 01:39:35;;;;;;;18.37;5.47;;;18.40;99.90;;;;;;4969918;28;20292;-72
2022/06/03 01:42:36;;;;;;;12.07;5.40;;;18.40;99.90;;;;;;4986167;28;20193;-72
2022/06/03 01:45:32;;;;;;;13.47;5.53;;;18.40;99.90;;;;;;5064965;28;20268;-72
2022/06/03 01:48:11;;;;;;;13.30;5.70;;;18.50;99.90;;;;;;5058375;28;20178;-72
2022/06/03 01:51:27;;;;;;;9.37;5.47;;;18.50;99.90;;;;;;5091532;28;20173;-72
2022/06/03 01:54:14;;;;;;;14.50;5.50;;;18.60;99.90;;;;;;5087967;28;20285;-72
2022/06/03 01:57:24;;;;;;;17.20;6.40;;;18.60;99.90;;;;;;5104918;28;20630;-72
2022/06/03 02:00:30;;;;;;;19.83;5.77;;;18.60;99.90;;;;;;5094254;28;20280;-72
2022/06/03 02:03:46;;;;;;;8.27;4.90;;;18.50;99.90;;;;;;5073480;28;20209;-72
2022/06/03 02:06:54;;;;;;;13.83;5.43;;;18.50;99.90;;;;;;5094961;28;20946;-72
2022/06/03 02:09:57;;;;;;;11.43;5.07;;;18.50;99.90;;;;;;5044425;28;20233;-72
2022/06/03 02:12:51;;;;;;;16.17;5.40;;;18.50;99.90;;;;;;5056567;28;20235;-72
2022/06/03 02:15:51;;;;;;;11.70;5.27;;;18.50;99.90;;;;;;5073904;28;20178;-72
2022/06/03 02:18:27;;;;;;;14.70;5.57;;;18.40;99.90;;;;;;5073978;28;20233;-72
2022/06/03 02:21:49;;;;;;;13.90;5.03;;;18.40;99.90;;;;;;5056722;28;20181;-72
2022/06/03 02:25:25;;;;;;;13.43;5.17;;;18.40;99.90;;;;;;5057077;28;20186;-72
2022/06/03 02:28:31;;;;;;;11.13;4.83;;;18.40;99.90;;;;;;5039583;28;20198;-72
2022/06/03 02:31:26;;;;;;;13.53;5.87;;;18.30;99.90;;;;;;5056612;28;20642;-73
2022/06/03 02:34:20;;;;;;;11.70;5.43;;;18.30;99.90;;;;;;5092219;28;20182;-72
2022/06/03 02:37:42;;;;;;;10.93;5.00;;;18.40;99.90;;;;;;5073836;28;20239;-72
2022/06/03 02:40:48;;;;;;;12.47;5.23;;;18.40;99.90;;;;;;5096996;28;20186;-72
2022/06/03 02:43:59;;;;;;;15.43;5.90;;;18.40;99.90;;;;;;5106762;28;20186;-72
2022/06/03 02:47:38;;;;;;;12.37;5.43;;;18.40;99.90;;;;;;5036807;28;20218;-72
2022/06/03 02:50:26;;;;;;;11.90;5.10;;;18.30;99.90;;;;;;4970255;28;20225;-72
2022/06/03 02:53:35;;;;;;;11.47;5.53;;;18.30;99.90;;;;;;4984555;28;20190;-72
2022/06/03 02:56:57;;;;;;;13.83;5.77;;;18.30;99.90;;;;;;5079498;28;20198;-72
2022/06/03 02:59:49;;;;;;;16.60;6.27;;;18.20;99.90;;;;;;5056237;28;20218;-73
2022/06/03 03:02:51;;;;;;;12.27;4.97;;;18.20;99.90;;;;;;5055839;28;20609;-72
2022/06/03 03:05:50;;;;;;;16.63;5.70;;;18.20;99.90;;;;;;5056445;28;20219;-73
2022/06/03 03:08:51;;;;;;;14.37;5.87;;;18.20;99.90;;;;;;5069467;28;20222;-72
2022/06/03 03:11:32;;;;;;;13.03;5.57;;;18.20;99.90;;;;;;5098348;28;20194;-73
2022/06/03 03:14:32;;;;;;;10.10;5.37;;;18.20;99.90;;;;;;5079030;28;20288;-72
2022/06/03 03:17:59;;;;;;;13.13;5.40;;;18.20;99.90;;;;;;5086446;28;20182;-72
2022/06/03 03:21:08;;;;;;;12.63;5.20;;;18.20;99.90;;;;;;4962704;28;20650;-73
2022/06/03 03:24:21;;;;;;;16.70;5.60;;;18.20;99.90;;;;;;5004755;28;20223;-72
2022/06/03 03:27:32;;;;;;;18.10;6.00;;;18.20;99.90;;;;;;5033417;28;20226;-72
2022/06/03 03:30:28;;;;;;;15.53;6.10;;;18.20;99.90;;;;;;5077883;28;20190;-72
2022/06/03 03:33:36;;;;;;;15.07;5.70;;;18.20;99.90;;;;;;5072136;28;20269;-72
2022/06/03 03:36:29;;;;;;;11.70;5.40;;;18.10;99.90;;;;;;5106351;28;20524;-73
2022/06/03 03:39:30;;;;;;;17.93;5.47;;;18.00;99.90;;;;;;5071765;28;20210;-72
2022/06/03 03:42:25;;;;;;;13.23;5.67;;;18.00;99.90;;;;;;5055163;28;20227;-73
2022/06/03 03:45:25;;;;;;;13.00;5.67;;;17.90;99.90;;;;;;5055633;28;20220;-72
2022/06/03 03:48:31;;;;;;;15.27;5.70;;;17.90;99.90;;;;;;5052985;28;20203;-72
2022/06/03 03:51:29;;;;;;;15.43;6.00;;;18.00;99.90;;;;;;5051679;28;20198;-72
2022/06/03 03:54:41;;;;;;;12.33;6.13;;;18.00;99.90;;;;;;5070030;28;20209;-72
2022/06/03 03:57:37;;;;;;;17.37;6.00;;;18.00;99.90;;;;;;5084394;28;20182;-72
2022/06/03 04:00:12;;;;;;;14.60;6.30;;;18.00;99.90;;;;;;5059923;28;20686;-72
2022/06/03 04:03:12;;;;;;;12.17;5.67;;;18.10;99.90;;;;;;5071319;28;20722;-72
2022/06/03 04:06:01;;;;;;;12.70;6.10;;;18.10;99.90;;;;;;5086157;28;20708;-72
2022/06/03 04:08:48;;;;;;;14.27;5.83;;;18.10;99.90;;;;;;5088582;28;20851;-72
2022/06/03 04:12:17;;;;;;;15.13;5.87;;;18.20;99.90;;;;;;5038367;28;20194;-73
2022/06/03 04:15:24;;;;;;;12.00;5.80;;;18.20;99.90;;;;;;5046864;28;20308;-72
2022/06/03 04:18:21;;;;;;;11.73;5.10;;;18.20;99.90;;;;;;5071047;28;20736;-72
2022/06/03 04:21:19;;;;;;;10.63;5.50;;;18.30;99.90;;;;;;5090037;28;20702;-72
2022/06/03 04:24:01;;;;;;;13.70;6.13;;;18.40;99.90;;;;;;4982450;28;20647;-72
2022/06/03 04:27:23;;;;;;;10.93;5.40;;;18.50;99.90;;;;;;5068215;28;20281;-72
2022/06/03 04:30:37;;;;;;;16.23;5.83;;;18.60;99.90;;;;;;5073612;28;20198;-73
2022/06/03 04:33:51;;;;;;;14.93;5.40;;;18.60;99.90;;;;;;5053947;28;20654;-72
2022/06/03 04:36:54;;;;;;;13.23;5.90;;;18.80;99.90;;;;;;5089849;28;20222;-72
2022/06/03 04:39:32;;;;;;;12.27;5.73;;;18.90;99.90;;;;;;5101184;28;20216;-72
2022/06/03 04:42:31;;;;;;;16.90;5.60;;;19.00;99.90;;;;;;5074109;28;20642;-72
2022/06/03 04:45:43;;;;;;;14.30;5.03;;;18.90;99.90;;;;;;5068671;28;20269;-72
2022/06/03 04:48:54;;;;;;;14.07;4.73;;;18.90;99.90;;;;;;5054280;28;20194;-73
2022/06/03 04:51:48;;;;;;;15.40;5.13;;;18.90;99.90;;;;;;5070373;28;20189;-73
2022/06/03 04:55:11;;;;;;;15.70;5.70;;;18.90;99.90;;;;;;5069821;28;20232;-73
2022/06/03 04:58:36;;;;;;;17.13;5.90;;;18.90;99.90;;;;;;5050074;28;20176;-73
2022/06/03 05:02:19;;;;;;;12.87;5.70;;;19.00;99.90;;;;;;5041848;28;20263;-72
2022/06/03 05:05:41;;;;;;;11.00;5.80;;;19.10;99.90;;;;;;5029061;28;20212;-72
2022/06/03 05:08:32;;;;;;;10.97;6.07;;;19.30;99.90;;;;;;5070485;28;20178;-73
2022/06/03 05:12:04;;;;;;;17.23;6.83;;;19.40;99.90;;;;;;5069519;28;20170;-72
2022/06/03 05:15:12;;;;;;;15.10;6.13;;;19.50;99.90;;;;;;5043981;28;20213;-72
2022/06/03 05:18:15;;;;;;;15.07;6.70;;;19.70;99.90;;;;;;5070812;28;20186;-73
2022/06/03 05:21:27;;;;;;;11.97;6.17;;;19.80;99.90;;;;;;5104624;28;20190;-73
2022/06/03 05:24:18;;;;;;;14.97;7.00;;;19.90;99.90;;;;;;5040979;28;20194;-73
2022/06/03 05:27:35;;;;;;;14.03;6.03;;;19.90;99.90;;;;;;5104425;28;20185;-72
2022/06/03 05:30:35;;;;;;;16.17;6.40;;;20.00;99.90;;;;;;5054483;28;20207;-72
2022/06/03 05:33:50;;;;;;;11.97;5.40;;;20.10;99.90;;;;;;5069782;28;20646;-72
2022/06/03 05:36:47;;;;;;;15.97;6.33;;;20.10;99.90;;;;;;5050720;28;20183;-72
2022/06/03 05:39:56;;;;;;;13.27;5.90;;;20.10;99.90;;;;;;5050359;28;20202;-72
2022/06/03 05:43:14;;;;;;;13.27;5.77;;;20.20;99.90;;;;;;5050118;28;20210;-73
2022/06/03 05:45:58;;;;;;;14.90;6.17;;;20.30;99.90;;;;;;5061604;28;20563;-73
2022/06/03 05:48:50;;;;;;;14.67;6.50;;;20.30;99.90;;;;;;5033838;28;20190;-72
2022/06/03 05:51:48;;;;;;;12.60;5.67;;;20.40;99.90;;;;;;5068576;28;20208;-72
2022/06/03 05:54:47;;;;;;;20.00;7.10;;;20.50;99.90;;;;;;5033369;28;20186;-72
2022/06/03 05:57:38;;;;;;;18.50;6.03;;;20.50;99.90;;;;;;5044320;28;20190;-72
2022/06/03 06:01:02;;;;;;;15.27;6.43;;;20.60;99.90;;;;;;5070886;28;20210;-73
2022/06/03 06:03:44;;;;;;;14.57;5.83;;;20.70;99.90;;;;;;5058456;28;20433;-73
2022/06/03 06:06:22;;;;;;;12.97;5.67;;;20.70;99.90;;;;;;5090926;28;20221;-72
2022/06/03 06:09:38;;;;;;;18.20;5.70;;;20.80;99.90;;;;;;5073721;28;20939;-73
2022/06/03 06:12:51;;;;;;;14.37;6.00;;;20.90;99.90;;;;;;5084152;28;20319;-73
2022/06/03 06:16:07;;;;;;;11.60;5.67;;;21.00;99.90;;;;;;5037387;28;20221;-72
2022/06/03 06:18:54;;;;;;;14.07;5.67;;;21.00;99.90;;;;;;5046705;28;20211;-73
2022/06/03 06:21:46;;;;;;;12.70;5.67;;;21.10;99.90;;;;;;5087185;28;20773;-73
2022/06/03 06:24:28;;;;;;;16.53;6.17;;;21.10;99.90;;;;;;5084662;28;20187;-72
2022/06/03 06:27:27;;;;;;;14.60;5.30;;;21.20;99.90;;;;;;5087788;28;20618;-73
2022/06/03 06:30:36;;;;;;;15.57;5.37;;;21.30;99.90;;;;;;5078115;28;20272;-72
2022/06/03 06:33:32;;;;;;;17.20;5.93;;;21.40;99.90;;;;;;5094575;28;20185;-73
2022/06/03 06:36:34;;;;;;;10.67;5.33;;;21.50;99.90;;;;;;5070010;28;20898;-72
2022/06/03 06:39:04;;;;;;;16.47;5.97;;;21.50;99.90;;;;;;5073774;28;20860;-73
2022/06/03 06:42:08;;;;;;;14.17;5.43;;;21.70;99.90;;;;;;5072289;28;20225;-73
2022/06/03 06:44:49;;;;;;;14.67;5.03;;;21.70;99.90;;;;;;5091132;28;20182;-73
2022/06/03 06:47:41;;;;;;;19.53;5.57;;;21.80;99.90;;;;;;5088414;28;20186;-72
2022/06/03 06:50:29;;;;;;;14.00;5.50;;;21.90;99.90;;;;;;5087209;28;20707;-72
2022/06/03 06:53:04;;;;;;;14.00;5.23;;;22.00;99.90;;;;;;5086567;28;20619;-72
2022/06/03 06:55:48;;;;;;;11.67;5.00;;;22.10;99.90;;;;;;5091596;28;20181;-73
2022/06/03 06:58:59;;;;;;;18.30;5.35;;;22.10;99.90;;;;;;5055684;28;20206;-72
2022/06/03 07:01:41;;;;;;;11.43;5.63;;;22.20;99.90;;;;;;5044818;28;20189;-73
2022/06/03 07:04:41;;;;;;;17.83;5.38;;;22.20;99.90;;;;;;5086586;28;20267;-73
2022/06/03 07:07:32;;;;;;;16.53;5.60;;;22.30;99.90;;;;;;5081756;28;20639;-72
2022/06/03 07:10:27;;;;;;;15.97;5.40;;;22.40;99.90;;;;;;5071623;28;20198;-73
2022/06/03 07:13:32;;;;;;;14.33;5.20;;;22.50;99.90;;;;;;5068994;28;20252;-72
2022/06/03 07:16:13;;;;;;;25.10;5.72;;;22.60;99.90;;;;;;5072221;28;20189;-72
2022/06/03 07:22:16;;;;;;;10.30;5.28;;;22.80;99.90;;;;;;5089123;28;20171;-72
2022/06/03 07:25:23;;;;;;;12.57;4.80;;;22.80;99.90;;;;;;5070118;28;20277;-72
2022/06/03 07:27:56;;;;;;;16.33;5.20;;;22.80;99.90;;;;;;5058751;28;20678;-73
2022/06/03 07:31:06;;;;;;;16.00;5.60;;;22.90;99.90;;;;;;5087945;28;20194;-73
2022/06/03 07:33:32;;;;;;;11.70;4.75;;;22.90;99.90;;;;;;5096670;28;20194;-72
2022/06/03 07:36:42;;;;;;;12.95;5.95;;;23.00;99.90;;;;;;5072118;28;20186;-73
2022/06/03 07:39:49;;;;;;;15.82;5.57;;;23.10;99.90;;;;;;5057421;28;20523;-73
2022/06/03 07:42:52;;;;;;;17.10;5.40;;;23.20;99.90;;;;;;5086048;28;20280;-72
2022/06/03 07:45:51;;;;;;;16.30;5.78;;;23.30;99.90;;;;;;5070837;28;20899;-73
2022/06/03 07:48:23;;;;;;;12.38;4.88;;;23.40;99.90;;;;;;5088066;28;20187;-72
2022/06/03 07:51:19;;;;;;;11.85;5.03;;;23.40;99.90;;;;;;5071866;28;20304;-72
2022/06/03 07:54:27;;;;;;;14.18;5.43;;;23.30;99.90;;;;;;5084942;28;20266;-73
2022/06/03 07:57:08;;;;;;;14.63;5.82;;;23.50;99.90;;;;;;5071217;28;20203;-73
2022/06/03 07:59:42;;;;;;;12.88;5.20;;;23.60;99.90;;;;;;5096786;28;20696;-73
2022/06/03 08:02:13;;;;;;;13.75;5.75;;;23.70;99.90;;;;;;5054874;28;20205;-72
2022/06/03 08:04:40;;;;;;;20.67;5.25;;;23.80;99.90;;;;;;5055151;28;20178;-73
2022/06/03 08:13:12;;;;;;;16.85;5.07;;;24.10;99.90;;;;;;5105036;28;20205;-72
2022/06/03 08:15:58;;;;;;;10.48;5.20;;;24.20;99.90;;;;;;5075597;28;20193;-72
2022/06/03 08:18:32;;;;;;;18.25;4.97;;;24.20;99.90;;;;;;5071682;28;20212;-72
2022/06/03 08:21:06;;;;;;;17.05;5.07;;;24.30;99.90;;;;;;5088559;28;20254;-72
2022/06/03 08:23:35;;;;;;;12.30;5.05;;;24.30;99.90;;;;;;5109901;28;20212;-72
2022/06/03 08:26:11;;;;;;;21.23;5.40;;;24.40;99.90;;;;;;5092023;28;20182;-72
2022/06/03 08:28:45;;;;;;;17.90;5.78;;;24.50;99.90;;;;;;5109950;28;20177;-71
2022/06/03 08:31:12;;;;;;;11.30;5.13;;;24.50;99.90;;;;;;5078699;28;20200;-73
2022/06/03 08:33:59;;;;;;;11.98;4.95;;;24.50;99.90;;;;;;5054317;28;20182;-72
2022/06/03 08:36:32;;;;;;;12.85;5.40;;;24.60;99.90;;;;;;5059106;28;20254;-72
2022/06/03 08:39:16;;;;;;;17.05;5.38;;;24.70;99.90;;;;;;5077479;28;20226;-73
2022/06/03 08:42:22;;;;;;;10.43;5.03;;;24.70;99.90;;;;;;5068979;28;20175;-73
2022/06/03 08:45:31;;;;;;;11.23;5.07;;;24.80;99.90;;;;;;5016113;28;20187;-73
2022/06/03 08:48:07;;;;;;;15.50;5.10;;;24.90;99.90;;;;;;5054256;28;20214;-72
2022/06/03 08:50:51;;;;;;;15.27;5.43;;;25.00;99.90;;;;;;5088822;28;20235;-72
2022/06/03 08:53:53;;;;;;;13.05;5.32;;;24.90;99.90;;;;;;5089460;28;20189;-73
2022/06/03 08:56:31;;;;;;;13.23;5.18;;;25.00;99.90;;;;;;5039095;28;20189;-72
2022/06/03 08:59:05;;;;;;;14.23;5.07;;;25.20;99.90;;;;;;5070770;28;20304;-72
2022/06/03 09:01:39;;;;;;;18.00;5.63;;;25.30;99.90;;;;;;5104004;28;20190;-72
2022/06/03 09:04:22;;;;;;;17.42;5.88;;;25.30;99.90;;;;;;5104589;28;20177;-72
2022/06/03 09:07:03;;;;;;;16.50;5.32;;;25.30;99.90;;;;;;5089225;28;20178;-72
2022/06/03 09:10:07;;;;;;;15.13;5.57;;;25.40;99.90;;;;;;5054131;28;20182;-72
2022/06/03 09:12:51;;;;;;;12.45;4.95;;;25.40;99.90;;;;;;5050106;28;20201;-73
2022/06/03 09:15:26;;;;;;;13.68;5.10;;;25.40;99.90;;;;;;5093911;28;20189;-72
2022/06/03 09:18:21;;;;;;;12.55;4.90;;;25.50;99.90;;;;;;5067049;28;20186;-73
2022/06/03 09:20:56;;;;;;;10.73;4.82;;;25.60;99.90;;;;;;5050647;28;20186;-73
2022/06/03 09:23:26;;;;;;;14.30;5.07;;;25.70;99.90;;;;;;5050030;28;20749;-73
2022/06/03 09:25:57;;;;;;;14.05;5.18;;;25.70;99.90;;;;;;5067911;28;20182;-72
2022/06/03 09:28:36;;;;;;;13.18;5.07;;;25.40;99.90;;;;;;5101831;28;20225;-72
2022/06/03 09:31:09;;;;;;;12.50;5.20;;;25.50;99.90;;;;;;5053103;28;20194;-73
2022/06/03 09:33:41;;;;;;;15.73;5.03;;;25.70;99.90;;;;;;5070577;28;20210;-72
2022/06/03 09:36:13;;;;;;;14.65;5.68;;;25.80;99.90;;;;;;5070280;28;20182;-72
2022/06/03 09:38:51;;;;;;;14.15;5.85;;;26.00;99.90;;;;;;5066734;28;20210;-73
2022/06/03 09:41:25;;;;;;;13.15;4.43;;;26.00;99.90;;;;;;5049640;28;20190;-72
2022/06/03 09:43:54;;;;;;;14.10;5.40;;;26.20;99.90;;;;;;5069106;28;20655;-72
2022/06/03 09:46:24;;;;;;;18.25;5.28;;;26.30;99.90;;;;;;5078091;28;20841;-73
2022/06/03 09:48:51;;;;;;;11.90;4.80;;;26.30;99.90;;;;;;5068862;28;20730;-73
2022/06/03 09:51:55;;;;;;;15.93;5.15;;;26.20;99.90;;;;;;5052477;28;20211;-72
2022/06/03 09:54:21;;;;;;;13.43;4.35;;;26.20;99.90;;;;;;5069299;28;20183;-73
2022/06/03 09:56:53;;;;;;;12.18;4.93;;;26.30;99.90;;;;;;5069491;28;20197;-73
2022/06/03 09:59:23;;;;;;;10.77;4.80;;;26.30;99.90;;;;;;5059844;28;20764;-73
2022/06/03 10:01:51;;;;;;;18.13;5.20;;;26.40;99.90;;;;;;5073694;28;20201;-72
2022/06/03 10:04:20;;;;;;;31.45;5.80;;;26.40;99.90;;;;;;5039811;28;20198;-72
2022/06/03 10:06:47;;;;;;;12.55;5.30;;;26.70;99.90;;;;;;5091169;28;20174;-72
2022/06/03 10:18:05;;;;;;;19.02;5.53;;;26.90;99.90;;;;;;5071281;28;20210;-73
2022/06/03 10:20:35;;;;;;;14.07;5.15;;;26.90;99.90;;;;;;5069298;28;20199;-73
2022/06/03 10:23:08;;;;;;;13.65;4.60;;;26.90;99.90;;;;;;5070207;28;20224;-73
2022/06/03 10:25:40;;;;;;;11.88;4.38;;;26.90;99.90;;;;;;5121695;27;20178;-73
2022/06/03 10:28:10;;;;;;;19.48;5.25;;;26.90;99.90;;;;;;5056990;28;20706;-72
2022/06/03 10:30:41;;;;;;;12.95;4.82;;;26.90;99.90;;;;;;5073521;28;20219;-73
2022/06/03 10:33:27;;;;;;;12.02;5.07;;;26.80;99.90;;;;;;5056259;28;20840;-73
2022/06/03 10:36:02;;;;;;;17.25;5.30;;;26.60;99.90;;;;;;5066779;28;20181;-73
2022/06/03 10:38:32;;;;;;;13.25;4.88;;;26.40;99.90;;;;;;5058382;28;20281;-72
2022/06/03 10:41:11;;;;;;;10.43;4.20;;;26.60;99.90;;;;;;5062246;28;20187;-73
2022/06/03 10:43:40;;;;;;;12.38;5.15;;;26.60;99.90;;;;;;5109836;28;20240;-72
2022/06/03 10:46:19;;;;;;;16.98;4.93;;;26.80;99.90;;;;;;5102582;28;20190;-73
2022/06/03 10:48:46;;;;;;;11.38;4.70;;;26.90;99.90;;;;;;5073217;28;20190;-73
2022/06/03 10:51:19;;;;;;;16.40;5.35;;;26.70;99.90;;;;;;5106698;28;20211;-73
2022/06/03 11:02:51;;;;;;;16.83;5.35;;;26.50;99.90;;;;;;5070503;28;20182;-72
2022/06/03 11:05:26;;;;;;;14.80;4.65;;;26.60;99.90;;;;;;5052927;28;20179;-72
2022/06/03 11:08:08;;;;;;;16.92;4.75;;;26.70;99.90;;;;;;5035923;28;20300;-72
2022/06/03 11:10:50;;;;;;;13.43;4.65;;;26.60;99.90;;;;;;5100604;28;20209;-72
2022/06/03 11:13:39;;;;;;;19.27;5.05;;;26.60;99.90;;;;;;5072052;28;20208;-72
2022/06/03 11:16:23;;;;;;;13.85;5.07;;;26.30;99.90;;;;;;5056238;28;20178;-72
2022/06/03 11:18:50;;;;;;;14.75;5.20;;;26.10;99.90;;;;;;5054632;28;20316;-73
2022/06/03 11:21:29;;;;;;;12.40;4.40;;;26.20;99.90;;;;;;5088466;28;20257;-73
2022/06/03 11:24:00;;;;;;;15.68;5.20;;;26.20;99.90;;;;;;5066014;28;20693;-72
2022/06/03 11:26:39;;;;;;;12.80;5.00;;;26.30;99.90;;;;;;5095884;28;20184;-72
2022/06/03 11:29:17;;;;;;;14.32;4.15;;;26.30;99.90;;;;;;5109774;28;20702;-72
2022/06/03 11:31:47;;;;;;;16.65;4.95;;;26.30;99.90;;;;;;5078316;28;20209;-72
2022/06/03 11:34:57;;;;;;;13.10;4.95;;;26.30;99.90;;;;;;5072465;28;20190;-72
2022/06/03 11:37:36;;;;;;;12.20;4.22;;;26.40;99.90;;;;;;5055040;28;20181;-72
2022/06/03 11:40:40;;;;;;;13.82;4.60;;;26.40;99.90;;;;;;5072512;28;20275;-72
2022/06/03 11:43:19;;;;;;;13.32;4.72;;;26.30;99.90;;;;;;5070720;28;20189;-72
2022/06/03 11:46:05;;;;;;;15.15;4.88;;;26.20;99.90;;;;;;5069377;28;20188;-72
2022/06/03 11:48:43;;;;;;;14.95;4.78;;;26.20;99.90;;;;;;5088930;28;20196;-72
2022/06/03 11:51:13;;;;;;;10.25;4.25;;;26.30;99.90;;;;;;5110196;28;20229;-72
2022/06/03 11:53:50;;;;;;;12.55;4.22;;;26.40;99.90;;;;;;5091829;28;20546;-72
2022/06/03 11:56:24;;;;;;;14.80;4.63;;;26.40;99.90;;;;;;5092445;28;20723;-72
2022/06/03 11:59:07;;;;;;;14.75;4.70;;;26.40;99.90;;;;;;5105077;28;20213;-72
2022/06/03 12:01:33;;;;;;;10.35;4.18;;;26.30;99.90;;;;;;5090918;28;20737;-72
2022/06/03 12:04:16;;;;;;;12.20;4.00;;;26.30;99.90;;;;;;5080821;28;20178;-72
2022/06/03 12:07:22;;;;;;;10.90;4.18;;;26.20;99.90;;;;;;5072577;28;20178;-73
2022/06/03 12:10:01;;;;;;;12.23;4.20;;;26.20;99.90;;;;;;5063929;28;20186;-72
2022/06/03 12:15:33;;;;;;;19.83;4.13;;;26.30;99.90;;;;;;5093790;28;20555;-72
2022/06/03 12:18:36;;;;;;;11.48;4.03;;;26.30;99.90;;;;;;5079533;28;20243;-72
2022/06/03 12:21:29;;;;;;;12.60;4.20;;;26.30;99.90;;;;;;5047436;28;20237;-72
2022/06/03 12:23:57;;;;;;;14.48;4.40;;;26.40;99.90;;;;;;5069857;28;20277;-72
2022/06/03 12:26:31;;;;;;;14.65;4.28;;;26.40;99.90;;;;;;5089578;28;20237;-72
2022/06/03 12:29:17;;;;;;;14.05;4.28;;;26.30;99.90;;;;;;5096937;28;20230;-72
2022/06/03 12:31:46;;;;;;;14.30;4.28;;;26.30;99.90;;;;;;5099284;28;20292;-72
2022/06/03 12:34:28;;;;;;;15.10;4.45;;;26.30;99.90;;;;;;5065928;28;20255;-72
2022/06/03 12:37:23;;;;;;;10.23;4.07;;;26.30;99.90;;;;;;5088942;28;20259;-72
2022/06/03 12:40:20;;;;;;;12.68;4.18;;;26.30;99.90;;;;;;5076428;28;20726;-73
2022/06/03 12:42:47;;;;;;;17.02;4.03;;;26.30;99.90;;;;;;5086391;28;20244;-72
2022/06/03 12:45:29;;;;;;;11.43;4.35;;;26.30;99.90;;;;;;5090360;28;20549;-71
2022/06/03 12:47:56;;;;;;;11.80;4.38;;;26.40;99.90;;;;;;5091316;28;20201;-72
2022/06/03 12:50:37;;;;;;;12.20;3.90;;;26.50;99.90;;;;;;5081388;28;20206;-72
2022/06/03 12:53:27;;;;;;;8.50;3.97;;;26.50;99.90;;;;;;5077709;28;20274;-72
2022/06/03 12:55:59;;;;;;;17.65;4.57;;;26.50;99.90;;;;;;5037667;28;20181;-72
2022/06/03 12:58:45;;;;;;;12.38;4.60;;;26.60;99.90;;;;;;5050860;28;20261;-72
2022/06/03 13:01:27;;;;;;;14.65;4.45;;;26.50;99.90;;;;;;5081566;28;20225;-72
2022/06/03 13:03:53;;;;;;;12.50;4.13;;;26.50;99.90;;;;;;5088740;28;20170;-72
2022/06/03 13:06:27;;;;;;;9.70;4.10;;;26.50;99.90;;;;;;5063018;28;20853;-72
2022/06/03 13:11:55;;;;;;;12.10;4.88;;;26.30;99.90;;;;;;5062273;28;20225;-72
2022/06/03 13:14:32;;;;;;;16.50;4.45;;;26.30;99.90;;;;;;5059140;28;20237;-72
2022/06/03 13:16:59;;;;;;;10.27;4.03;;;26.10;99.90;;;;;;5065885;28;20205;-72
2022/06/03 13:19:25;;;;;;;12.75;4.20;;;26.10;99.90;;;;;;5096222;28;20197;-72
2022/06/03 13:21:57;;;;;;;16.08;4.97;;;26.00;99.90;;;;;;5067570;28;20190;-73
2022/06/03 13:24:34;;;;;;;16.77;5.10;;;26.00;99.90;;;;;;5052445;28;20953;-72
2022/06/03 13:27:24;;;;;;;12.70;4.40;;;25.90;99.90;;;;;;5081531;28;20190;-73
2022/06/03 13:29:55;;;;;;;13.65;4.35;;;25.80;99.90;;;;;;5051509;28;20650;-72
2022/06/03 13:32:52;;;;;;;11.95;4.43;;;25.90;99.90;;;;;;5068150;28;20198;-72
2022/06/03 13:35:30;;;;;;;11.73;4.47;;;25.80;99.90;;;;;;5044040;28;20186;-72
2022/06/03 13:37:57;;;;;;;11.73;4.65;;;25.70;99.90;;;;;;5048801;28;20182;-73
2022/06/03 13:40:30;;;;;;;16.75;4.57;;;25.70;99.90;;;;;;5068211;28;20221;-73
2022/06/03 13:43:22;;;;;;;9.93;3.78;;;25.60;99.90;;;;;;5080851;28;20175;-73
2022/06/03 13:45:54;;;;;;;16.15;4.88;;;25.50;99.90;;;;;;5087408;28;20201;-72
2022/06/03 13:48:43;;;;;;;11.55;4.32;;;25.70;99.90;;;;;;5067090;28;20838;-72
2022/06/03 13:51:38;;;;;;;12.80;5.05;;;25.60;99.90;;;;;;5071654;28;20205;-72
2022/06/03 13:54:36;;;;;;;11.07;4.30;;;25.70;99.90;;;;;;5101842;27;20199;-72
2022/06/03 13:57:19;;;;;;;9.02;4.68;;;25.60;99.90;;;;;;5050916;28;20194;-72
2022/06/03 13:59:47;;;;;;;19.92;4.55;;;25.50;99.90;;;;;;5053967;28;20210;-72
2022/06/03 14:02:34;;;;;;;14.98;4.43;;;25.60;99.90;;;;;;5076263;28;20642;-72
2022/06/03 14:05:14;;;;;;;11.43;4.45;;;25.50;99.90;;;;;;5049919;28;20655;-73
2022/06/03 14:07:55;;;;;;;12.50;4.10;;;25.50;99.90;;;;;;5055241;28;20185;-73
2022/06/03 14:10:26;;;;;;;13.88;3.83;;;25.50;99.90;;;;;;5077487;28;20213;-73
2022/06/03 14:13:12;;;;;;;12.30;4.25;;;25.40;99.90;;;;;;5080335;28;20306;-73
2022/06/03 14:16:08;;;;;;;11.07;4.40;;;25.40;99.90;;;;;;5076019;28;20531;-73
2022/06/03 14:19:23;;;;;;;13.20;4.28;;;25.30;99.90;;;;;;5056502;28;20214;-72
2022/06/03 14:21:53;;;;;;;21.45;5.35;;;25.20;99.90;;;;;;5046916;28;20259;-73
2022/06/03 14:24:20;;;;;;;13.38;4.65;;;24.90;99.90;;;;;;5077666;28;20178;-72
2022/06/03 14:27:14;;;;;;;12.48;4.13;;;24.80;99.90;;;;;;5090307;28;20198;-72
2022/06/03 14:30:01;;;;;;;10.93;4.20;;;24.80;99.90;;;;;;5051941;28;20279;-72
2022/06/03 14:32:36;;;;;;;13.52;4.38;;;24.90;99.90;;;;;;5067455;28;20197;-72
2022/06/03 14:35:19;;;;;;;16.60;4.70;;;24.80;99.90;;;;;;5066591;28;20260;-72
2022/06/03 14:38:11;;;;;;;13.15;4.93;;;24.80;99.90;;;;;;5070565;28;20201;-72
2022/06/03 14:40:44;;;;;;;13.40;4.13;;;24.80;99.90;;;;;;5073693;28;20182;-72
2022/06/03 14:43:19;;;;;;;19.80;5.07;;;24.80;99.90;;;;;;5073081;28;20265;-72
2022/06/03 14:45:55;;;;;;;10.20;4.25;;;24.80;99.90;;;;;;5055806;28;20520;-72
2022/06/03 14:48:30;;;;;;;15.07;4.85;;;24.80;99.90;;;;;;5072570;28;20178;-73
2022/06/03 14:51:14;;;;;;;12.85;4.43;;;24.70;99.90;;;;;;5051334;28;20202;-72
2022/06/03 14:53:59;;;;;;;14.57;4.97;;;24.60;99.90;;;;;;5087168;28;20182;-73
2022/06/03 14:56:32;;;;;;;12.90;4.40;;;24.60;99.90;;;;;;5056660;28;20182;-72
2022/06/03 14:59:06;;;;;;;12.57;4.30;;;24.60;99.90;;;;;;5073157;28;20311;-72
2022/06/03 15:01:49;;;;;;;15.25;4.57;;;24.50;99.90;;;;;;5052600;28;20273;-73
2022/06/03 15:04:33;;;;;;;12.93;4.70;;;24.40;99.90;;;;;;5056006;28;20190;-73
2022/06/03 15:07:09;;;;;;;12.85;4.35;;;24.30;99.90;;;;;;5056755;28;20189;-72